Time;durP1;ratioP1;P1;durP2;ratioP2;P2;SDS_P1;SDS_P2;PMS_P1;PMS_P2;Temp;Humidity;BMP_temperature;BMP_pressure;BME280_temperature;BME280_humidity;BME280_pressure;Samples;Min_cycle;Max_cycle;Signal;HPM_P1;HPM_P2
2023/12/20 00:02:18;;;;;;;13.00;6.53;;;5.90;99.90;;;;;;5008070;28;20111;-54
2023/12/20 00:04:45;;;;;;;9.48;5.25;;;6.00;99.90;;;;;;5007263;28;20372;-53
2023/12/20 00:07:13;;;;;;;10.88;5.03;;;6.00;99.90;;;;;;5008605;28;20153;-58
2023/12/20 00:09:40;;;;;;;12.23;6.25;;;6.00;99.90;;;;;;5008397;28;20046;-51
2023/12/20 00:12:07;;;;;;;9.57;6.32;;;6.00;99.90;;;;;;5008705;28;20042;-52
2023/12/20 00:14:35;;;;;;;10.82;5.50;;;6.00;99.90;;;;;;5006163;28;20041;-50
2023/12/20 00:17:02;;;;;;;9.70;5.78;;;6.00;99.90;;;;;;5008384;28;20458;-52
2023/12/20 00:19:29;;;;;;;11.07;5.47;;;6.00;99.90;;;;;;5012795;28;20050;-53
2023/12/20 00:21:57;;;;;;;10.13;5.47;;;6.00;99.90;;;;;;5008146;28;20065;-53
2023/12/20 00:24:24;;;;;;;11.55;5.88;;;5.90;99.90;;;;;;5007667;28;20041;-52
2023/12/20 00:26:51;;;;;;;9.48;5.65;;;5.90;99.90;;;;;;5008016;28;20533;-55
2023/12/20 00:29:18;;;;;;;10.65;5.55;;;6.00;99.90;;;;;;5012944;28;20049;-56
2023/12/20 00:31:45;;;;;;;12.07;6.30;;;5.90;99.90;;;;;;5008327;28;20052;-53
2023/12/20 00:34:12;;;;;;;10.05;5.97;;;5.90;99.90;;;;;;5008505;28;20049;-54
2023/12/20 00:36:39;;;;;;;9.85;5.82;;;5.90;99.90;;;;;;5010667;28;20186;-51
2023/12/20 00:39:06;;;;;;;10.57;5.60;;;5.90;99.90;;;;;;4995974;28;20447;-54
2023/12/20 00:41:33;;;;;;;15.93;5.90;;;5.90;99.90;;;;;;5007470;28;20046;-54
2023/12/20 00:44:01;;;;;;;9.82;5.65;;;5.90;99.90;;;;;;5008955;28;20447;-51
2023/12/20 00:46:28;;;;;;;9.55;5.95;;;5.80;99.90;;;;;;5008956;28;20553;-53
2023/12/20 00:48:55;;;;;;;9.90;5.07;;;5.80;99.90;;;;;;5008482;28;20053;-49
2023/12/20 00:51:22;;;;;;;11.80;5.80;;;5.90;99.90;;;;;;5007441;28;20104;-55
2023/12/20 00:53:54;;;;;;;11.52;5.97;;;5.80;99.90;;;;;;5008194;28;20064;-50
2023/12/20 00:56:21;;;;;;;9.65;5.88;;;5.90;99.90;;;;;;5035963;28;20057;-49
2023/12/20 00:58:48;;;;;;;9.73;5.30;;;5.90;99.90;;;;;;5008735;28;20124;-53
2023/12/20 01:01:15;;;;;;;9.73;5.20;;;5.90;99.90;;;;;;5007872;28;20151;-56
2023/12/20 01:03:43;;;;;;;11.10;5.55;;;5.80;99.90;;;;;;5002479;28;20431;-50
2023/12/20 01:06:10;;;;;;;8.95;4.90;;;5.90;99.90;;;;;;5008067;28;20050;-52
2023/12/20 01:08:37;;;;;;;8.77;4.80;;;5.90;99.90;;;;;;5008928;28;20140;-51
2023/12/20 01:11:05;;;;;;;8.13;4.88;;;5.90;99.90;;;;;;5008020;28;20049;-52
2023/12/20 01:13:32;;;;;;;10.38;5.30;;;5.90;99.90;;;;;;5011516;28;20061;-50
2023/12/20 01:15:59;;;;;;;6.90;4.15;;;5.90;99.90;;;;;;5011441;28;20042;-59
2023/12/20 01:18:27;;;;;;;7.15;4.00;;;5.90;99.90;;;;;;5016458;28;20046;-57
2023/12/20 01:20:54;;;;;;;8.10;4.60;;;5.80;99.90;;;;;;5011007;28;20041;-61
2023/12/20 01:23:21;;;;;;;5.88;3.58;;;5.90;99.90;;;;;;5010930;28;20157;-55
2023/12/20 01:25:48;;;;;;;8.43;3.65;;;5.80;99.90;;;;;;5010962;28;20521;-52
2023/12/20 01:28:15;;;;;;;7.00;3.13;;;5.80;99.90;;;;;;5012477;28;20053;-56
2023/12/20 01:30:43;;;;;;;5.45;3.15;;;5.80;99.90;;;;;;5007032;28;20058;-52
2023/12/20 01:33:10;;;;;;;5.05;2.88;;;5.90;99.90;;;;;;5015608;28;20052;-57
2023/12/20 01:35:37;;;;;;;6.85;2.78;;;5.90;99.90;;;;;;5010636;28;20057;-61
2023/12/20 01:38:04;;;;;;;6.95;3.60;;;5.80;99.90;;;;;;5012244;28;20147;-58
2023/12/20 01:40:32;;;;;;;4.88;2.53;;;5.90;99.90;;;;;;5010443;28;20057;-55
2023/12/20 01:43:06;;;;;;;7.28;2.75;;;5.80;99.90;;;;;;5010626;28;20511;-56
2023/12/20 01:45:34;;;;;;;5.80;2.63;;;5.80;99.90;;;;;;5012002;28;20060;-56
2023/12/20 01:48:02;;;;;;;6.75;3.78;;;5.80;99.90;;;;;;5009737;28;20105;-56
2023/12/20 01:50:31;;;;;;;5.13;2.35;;;5.80;99.90;;;;;;5010940;28;20061;-58
2023/12/20 01:53:01;;;;;;;4.18;2.38;;;5.70;99.90;;;;;;5011807;28;20057;-55
2023/12/20 01:55:31;;;;;;;3.92;2.30;;;5.70;99.90;;;;;;5007994;28;20053;-55
2023/12/20 01:57:59;;;;;;;5.25;2.53;;;5.70;99.90;;;;;;5010528;28;20046;-55
2023/12/20 02:00:30;;;;;;;4.43;2.55;;;5.70;99.90;;;;;;5015997;28;20100;-53
2023/12/20 02:03:00;;;;;;;3.50;2.00;;;5.70;99.90;;;;;;5011079;28;20050;-52
2023/12/20 02:05:32;;;;;;;3.60;2.23;;;5.70;99.90;;;;;;5010629;28;20052;-53
2023/12/20 02:07:59;;;;;;;4.47;2.10;;;5.70;99.90;;;;;;5011062;28;20120;-53
2023/12/20 02:10:27;;;;;;;4.28;1.90;;;5.70;99.90;;;;;;5011191;28;20494;-54
2023/12/20 02:12:54;;;;;;;3.45;2.13;;;5.60;99.90;;;;;;5008899;28;20338;-51
2023/12/20 02:15:22;;;;;;;5.35;2.45;;;5.60;99.90;;;;;;5010260;28;20060;-51
2023/12/20 02:17:49;;;;;;;3.17;1.90;;;5.60;99.90;;;;;;5009352;28;20038;-48
2023/12/20 02:20:17;;;;;;;3.75;1.92;;;5.50;99.90;;;;;;5010774;28;20045;-49
2023/12/20 02:22:45;;;;;;;4.38;1.70;;;5.50;99.90;;;;;;5009239;28;20056;-55
2023/12/20 02:25:12;;;;;;;3.20;1.50;;;5.40;99.90;;;;;;5009174;28;20053;-51
2023/12/20 02:27:40;;;;;;;3.17;1.67;;;5.50;99.90;;;;;;5009909;28;20050;-50
2023/12/20 02:30:07;;;;;;;2.72;1.50;;;5.40;99.90;;;;;;4991660;28;20041;-50
2023/12/20 02:32:34;;;;;;;3.03;1.40;;;5.40;99.90;;;;;;5007229;28;20049;-50
2023/12/20 02:35:02;;;;;;;4.47;1.67;;;5.30;99.90;;;;;;5004704;28;20056;-53
2023/12/20 02:37:29;;;;;;;3.65;1.70;;;5.30;99.90;;;;;;5009547;28;20064;-56
2023/12/20 02:39:56;;;;;;;3.00;1.67;;;5.20;99.90;;;;;;5008662;28;20340;-49
2023/12/20 02:42:23;;;;;;;3.92;1.50;;;5.20;99.90;;;;;;5009050;28;20072;-53
2023/12/20 02:44:50;;;;;;;2.17;1.30;;;5.10;99.90;;;;;;5008405;28;20038;-52
2023/12/20 02:47:17;;;;;;;2.42;1.38;;;5.00;99.90;;;;;;5008009;28;20057;-48
2023/12/20 02:49:44;;;;;;;3.30;1.27;;;5.10;99.90;;;;;;5007996;28;20060;-52
2023/12/20 02:52:11;;;;;;;2.58;1.38;;;5.10;99.90;;;;;;5007924;28;20057;-52
2023/12/20 02:54:38;;;;;;;2.88;1.40;;;5.00;99.90;;;;;;5008826;28;20061;-55
2023/12/20 02:57:06;;;;;;;3.40;1.40;;;5.00;99.90;;;;;;5020475;28;20526;-50
2023/12/20 02:59:33;;;;;;;3.60;1.20;;;5.00;99.90;;;;;;5023797;28;20053;-53
2023/12/20 03:02:00;;;;;;;2.28;1.40;;;5.00;99.90;;;;;;5020798;28;20052;-50
2023/12/20 03:04:27;;;;;;;2.55;1.33;;;4.90;99.90;;;;;;5009846;28;20121;-50
2023/12/20 03:06:55;;;;;;;1.52;1.10;;;4.90;99.90;;;;;;5006538;28;20579;-45
2023/12/20 03:09:22;;;;;;;2.35;1.33;;;4.90;99.90;;;;;;5006518;28;20445;-48
2023/12/20 03:11:49;;;;;;;2.13;1.25;;;4.80;99.90;;;;;;5008473;28;20042;-46
2023/12/20 03:14:16;;;;;;;1.95;1.25;;;4.80;99.90;;;;;;5008383;28;20045;-52
2023/12/20 03:16:48;;;;;;;1.52;1.13;;;4.80;99.90;;;;;;5006302;28;20140;-49
2023/12/20 03:19:17;;;;;;;1.63;1.02;;;4.80;99.90;;;;;;5006870;28;20046;-51
2023/12/20 03:21:44;;;;;;;2.00;1.05;;;4.70;99.90;;;;;;5003854;28;20503;-53
2023/12/20 03:24:11;;;;;;;1.67;1.00;;;4.70;99.90;;;;;;5007516;28;20048;-51
2023/12/20 03:26:38;;;;;;;1.25;1.02;;;4.70;99.90;;;;;;5008080;28;20304;-48
2023/12/20 03:29:05;;;;;;;2.45;1.10;;;4.70;99.90;;;;;;5009013;28;20050;-50
2023/12/20 03:31:33;;;;;;;1.83;1.00;;;4.70;99.90;;;;;;5008486;28;20057;-52
2023/12/20 03:34:00;;;;;;;2.13;1.10;;;4.70;99.90;;;;;;5008104;28;20050;-50
2023/12/20 03:36:27;;;;;;;2.38;1.35;;;4.60;99.90;;;;;;5007345;28;20042;-46
2023/12/20 03:38:54;;;;;;;2.00;1.25;;;4.60;99.90;;;;;;5007908;28;20046;-47
2023/12/20 03:41:21;;;;;;;2.83;1.10;;;4.60;99.90;;;;;;5007925;28;20046;-52
2023/12/20 03:43:48;;;;;;;3.45;1.20;;;4.60;99.90;;;;;;5008218;28;20530;-49
2023/12/20 03:46:15;;;;;;;2.13;1.20;;;4.60;99.90;;;;;;5007136;28;20057;-48
2023/12/20 03:48:42;;;;;;;2.80;1.00;;;4.60;99.90;;;;;;5008896;28;20173;-50
2023/12/20 03:51:09;;;;;;;2.22;1.08;;;4.60;99.90;;;;;;5007412;28;20083;-50
2023/12/20 03:53:36;;;;;;;2.72;1.50;;;4.60;99.90;;;;;;5016930;28;20309;-48
2023/12/20 03:56:04;;;;;;;2.78;1.20;;;4.60;99.90;;;;;;5004177;28;20046;-50
2023/12/20 03:58:31;;;;;;;1.77;1.13;;;4.60;99.90;;;;;;5006625;28;20511;-48
2023/12/20 04:00:58;;;;;;;2.58;1.40;;;4.60;99.90;;;;;;5005980;28;20045;-50
2023/12/20 04:03:25;;;;;;;2.20;1.23;;;4.60;99.90;;;;;;5007211;28;20042;-52
2023/12/20 04:05:52;;;;;;;2.90;1.30;;;4.60;99.90;;;;;;4990858;28;20049;-51
2023/12/20 04:08:20;;;;;;;2.50;1.40;;;4.60;99.90;;;;;;5006078;28;20157;-49
2023/12/20 04:10:47;;;;;;;3.63;1.58;;;4.50;99.90;;;;;;5006425;28;20077;-45
2023/12/20 04:13:14;;;;;;;2.58;1.67;;;4.60;99.90;;;;;;5016534;28;20054;-47
2023/12/20 04:15:41;;;;;;;1.73;1.10;;;4.60;99.90;;;;;;5005494;28;20482;-47
2023/12/20 04:18:08;;;;;;;2.40;1.30;;;4.50;99.90;;;;;;5004652;28;20600;-53
2023/12/20 04:20:36;;;;;;;2.25;1.45;;;4.60;99.90;;;;;;5007551;28;20115;-46
2023/12/20 04:23:03;;;;;;;3.60;1.40;;;4.50;99.90;;;;;;5012690;28;20033;-51
2023/12/20 04:25:30;;;;;;;1.90;1.27;;;4.50;99.90;;;;;;4990787;28;20140;-49
2023/12/20 04:27:57;;;;;;;2.88;1.40;;;4.50;99.90;;;;;;5008555;28;20045;-47
2023/12/20 04:30:24;;;;;;;2.25;1.30;;;4.50;99.90;;;;;;5009493;28;20129;-49
2023/12/20 04:32:51;;;;;;;2.35;1.27;;;4.50;99.90;;;;;;5007315;28;20491;-50
2023/12/20 04:35:18;;;;;;;2.25;1.25;;;4.40;99.90;;;;;;5007931;28;20233;-48
2023/12/20 04:37:45;;;;;;;2.50;1.50;;;4.40;99.90;;;;;;5003069;28;20758;-51
2023/12/20 04:40:13;;;;;;;2.45;1.35;;;4.40;99.90;;;;;;5007554;28;20036;-52
2023/12/20 04:42:40;;;;;;;2.03;1.20;;;4.40;99.90;;;;;;5010523;28;20042;-49
2023/12/20 04:45:07;;;;;;;3.03;1.73;;;4.40;99.90;;;;;;5007413;28;20050;-48
2023/12/20 04:47:35;;;;;;;2.72;1.30;;;4.40;99.90;;;;;;5007869;28;20071;-53
2023/12/20 04:50:02;;;;;;;2.55;1.42;;;4.40;99.90;;;;;;5011474;28;20073;-51
2023/12/20 04:52:30;;;;;;;3.78;1.45;;;4.40;99.90;;;;;;5013244;28;20053;-50
2023/12/20 04:54:57;;;;;;;2.47;1.40;;;4.40;99.90;;;;;;5009391;28;20065;-47
2023/12/20 04:57:24;;;;;;;2.42;1.38;;;4.40;99.90;;;;;;5013479;28;20121;-50
2023/12/20 04:59:51;;;;;;;3.78;1.55;;;4.40;99.90;;;;;;5013718;28;20073;-48
2023/12/20 05:02:18;;;;;;;2.75;1.45;;;4.40;99.90;;;;;;5012828;28;20394;-49
2023/12/20 05:04:45;;;;;;;2.13;1.40;;;4.40;99.90;;;;;;5007467;28;20050;-49
2023/12/20 05:07:13;;;;;;;3.03;1.58;;;4.50;99.90;;;;;;5011727;28;20169;-49
2023/12/20 05:09:40;;;;;;;3.75;1.45;;;4.50;99.90;;;;;;5005824;28;20048;-51
2023/12/20 05:12:07;;;;;;;2.60;1.48;;;4.50;99.90;;;;;;5009017;28;20132;-50
2023/12/20 05:14:34;;;;;;;2.25;1.25;;;4.40;99.90;;;;;;5015495;28;20721;-52
2023/12/20 05:17:03;;;;;;;3.25;1.50;;;4.40;99.90;;;;;;5027304;28;20042;-48
2023/12/20 05:19:30;;;;;;;2.42;1.48;;;4.40;99.90;;;;;;5011498;28;20152;-50
2023/12/20 05:21:57;;;;;;;2.63;1.48;;;4.40;99.90;;;;;;5010328;28;20353;-50
2023/12/20 05:24:25;;;;;;;3.20;1.63;;;4.40;99.90;;;;;;5035295;28;20066;-53
2023/12/20 05:26:52;;;;;;;2.83;1.25;;;4.40;99.90;;;;;;5013855;28;20034;-48
2023/12/20 05:29:20;;;;;;;2.13;1.45;;;4.40;99.90;;;;;;5010855;28;20053;-45
2023/12/20 05:31:47;;;;;;;3.05;1.50;;;4.40;99.90;;;;;;5010530;28;20050;-48
2023/12/20 05:34:15;;;;;;;2.53;1.45;;;4.40;99.90;;;;;;5038025;28;20060;-54
2023/12/20 05:36:42;;;;;;;3.10;1.50;;;4.40;99.90;;;;;;5003504;28;20050;-49
2023/12/20 05:39:09;;;;;;;3.25;1.85;;;4.40;99.90;;;;;;5009977;28;20084;-49
2023/12/20 05:41:36;;;;;;;2.70;1.60;;;4.40;99.90;;;;;;5006860;28;20053;-50
2023/12/20 05:44:03;;;;;;;3.30;1.60;;;4.40;99.90;;;;;;5009963;28;20116;-53
2023/12/20 05:46:30;;;;;;;2.20;1.30;;;4.40;99.90;;;;;;5011213;28;20080;-53
2023/12/20 05:48:57;;;;;;;2.83;1.60;;;4.40;99.90;;;;;;5011392;28;20121;-54
2023/12/20 05:51:25;;;;;;;2.38;1.40;;;4.40;99.90;;;;;;5011656;28;20531;-48
2023/12/20 05:53:52;;;;;;;2.88;1.52;;;4.40;99.90;;;;;;5010555;28;20038;-51
2023/12/20 05:56:19;;;;;;;2.47;1.50;;;4.40;99.90;;;;;;5012343;28;20042;-48
2023/12/20 05:58:46;;;;;;;2.38;1.55;;;4.40;99.90;;;;;;5003977;28;20046;-51
2023/12/20 06:01:14;;;;;;;3.28;1.52;;;4.40;99.90;;;;;;5010546;28;20050;-48
2023/12/20 06:03:42;;;;;;;3.42;1.88;;;4.40;99.90;;;;;;5009699;28;20100;-53
2023/12/20 06:06:09;;;;;;;3.78;2.03;;;4.40;99.90;;;;;;5009737;28;20096;-48
2023/12/20 06:08:43;;;;;;;4.22;2.13;;;4.40;99.90;;;;;;5038494;28;20041;-49
2023/12/20 06:11:11;;;;;;;7.18;2.85;;;4.40;99.90;;;;;;5008983;28;20056;-46
2023/12/20 06:13:38;;;;;;;5.72;2.10;;;4.40;99.90;;;;;;5016436;28;20041;-51
2023/12/20 06:16:07;;;;;;;7.47;2.35;;;4.40;99.90;;;;;;5009451;28;20041;-50
2023/12/20 06:18:36;;;;;;;6.18;2.28;;;4.40;99.90;;;;;;5010677;28;20319;-50
2023/12/20 06:21:04;;;;;;;3.85;2.33;;;4.40;99.90;;;;;;5012596;28;20668;-45
2023/12/20 06:23:31;;;;;;;6.13;2.50;;;4.40;99.90;;;;;;5011571;28;20257;-51
2023/12/20 06:25:58;;;;;;;4.57;2.17;;;4.40;99.90;;;;;;5009506;28;20050;-52
2023/12/20 06:28:25;;;;;;;4.35;2.33;;;4.40;99.90;;;;;;5012134;28;20054;-47
2023/12/20 06:30:54;;;;;;;5.28;2.53;;;4.30;99.90;;;;;;5008670;28;20046;-49
2023/12/20 06:33:22;;;;;;;5.10;2.70;;;4.30;99.90;;;;;;5010231;28;20053;-51
2023/12/20 06:35:49;;;;;;;7.82;3.33;;;4.40;99.90;;;;;;5009968;28;20057;-47
2023/12/20 06:38:18;;;;;;;7.82;3.55;;;4.40;99.90;;;;;;5011788;28;20510;-49
2023/12/20 06:40:45;;;;;;;7.88;3.80;;;4.40;99.90;;;;;;5008553;28;20454;-50
2023/12/20 06:43:13;;;;;;;7.63;3.80;;;4.40;99.90;;;;;;5011074;28;20503;-47
2023/12/20 06:46:00;;;;;;;7.70;4.15;;;4.30;99.90;;;;;;5007638;28;20125;-49
2023/12/20 06:48:27;;;;;;;10.23;3.70;;;4.40;99.90;;;;;;5035081;28;20049;-49
2023/12/20 06:50:54;;;;;;;8.98;4.05;;;4.30;99.90;;;;;;5005314;28;20773;-46
2023/12/20 06:53:22;;;;;;;11.63;4.30;;;4.30;99.90;;;;;;5005612;28;20129;-47
2023/12/20 06:55:49;;;;;;;7.68;3.78;;;4.30;99.90;;;;;;5008758;28;20137;-50
2023/12/20 06:58:16;;;;;;;11.93;3.60;;;4.30;99.90;;;;;;4993256;28;20057;-47
2023/12/20 07:00:43;;;;;;;10.52;4.18;;;4.40;99.90;;;;;;5007565;28;20104;-51
2023/12/20 07:03:11;;;;;;;9.45;4.15;;;4.40;99.90;;;;;;5006086;28;20038;-49
2023/12/20 07:05:38;;;;;;;8.32;3.25;;;4.30;99.90;;;;;;5006702;28;20139;-46
2023/12/20 07:08:06;;;;;;;9.10;4.05;;;4.40;99.90;;;;;;5006243;28;20125;-47
2023/12/20 07:10:33;;;;;;;8.60;3.35;;;4.40;99.90;;;;;;5010695;28;20057;-52
2023/12/20 07:13:00;;;;;;;7.10;4.32;;;4.40;99.90;;;;;;4986763;28;20046;-48
2023/12/20 07:15:29;;;;;;;8.38;4.40;;;4.40;99.90;;;;;;5004369;28;20037;-51
2023/12/20 07:17:59;;;;;;;8.10;3.97;;;4.40;99.90;;;;;;5002040;28;20065;-52
2023/12/20 07:20:27;;;;;;;9.43;4.50;;;4.40;99.90;;;;;;5010333;28;20049;-44
2023/12/20 07:22:55;;;;;;;6.78;4.30;;;4.40;99.90;;;;;;5008635;28;20037;-49
2023/12/20 07:25:22;;;;;;;6.20;3.85;;;4.50;99.90;;;;;;5009404;28;20115;-48
2023/12/20 07:27:49;;;;;;;9.55;4.57;;;4.50;99.90;;;;;;5012353;28;20045;-47
2023/12/20 07:30:17;;;;;;;7.10;4.53;;;4.50;99.90;;;;;;5008451;28;20497;-47
2023/12/20 07:32:44;;;;;;;7.55;4.22;;;4.50;99.90;;;;;;5004527;28;20041;-45
2023/12/20 07:35:11;;;;;;;8.73;4.60;;;4.60;99.90;;;;;;5038157;28;20069;-48
2023/12/20 07:37:39;;;;;;;8.55;4.88;;;4.60;99.90;;;;;;5010124;28;20049;-47
2023/12/20 07:40:07;;;;;;;9.80;4.95;;;4.60;99.90;;;;;;5011319;28;20426;-48
2023/12/20 07:42:34;;;;;;;6.95;4.47;;;4.60;99.90;;;;;;5009093;28;20124;-47
2023/12/20 07:45:03;;;;;;;7.95;5.10;;;4.70;99.90;;;;;;5009078;28;20053;-51
2023/12/20 07:47:31;;;;;;;9.38;4.82;;;4.70;99.90;;;;;;5008237;28;20041;-46
2023/12/20 07:49:58;;;;;;;6.70;4.25;;;4.70;99.90;;;;;;5007660;28;20057;-49
2023/12/20 07:52:26;;;;;;;6.88;4.47;;;4.70;99.90;;;;;;5009374;28;20057;-45
2023/12/20 07:54:53;;;;;;;8.05;4.43;;;4.70;99.90;;;;;;5011751;28;20053;-47
2023/12/20 07:57:20;;;;;;;7.28;4.47;;;4.80;99.90;;;;;;5018196;28;20054;-51
2023/12/20 07:59:47;;;;;;;7.78;4.43;;;4.80;99.90;;;;;;5016381;28;20217;-50
2023/12/20 08:02:15;;;;;;;6.70;4.45;;;4.80;99.90;;;;;;5018927;28;20077;-49
2023/12/20 08:04:42;;;;;;;6.80;4.55;;;4.90;99.90;;;;;;4993427;28;20497;-49
2023/12/20 08:07:09;;;;;;;6.75;4.47;;;4.90;99.90;;;;;;5008391;28;20419;-47
2023/12/20 08:09:36;;;;;;;9.82;5.60;;;5.00;99.90;;;;;;5010289;28;20156;-54
2023/12/20 08:12:04;;;;;;;7.25;4.53;;;5.00;99.90;;;;;;5002132;28;20038;-51
2023/12/20 08:14:32;;;;;;;8.65;4.88;;;5.10;99.90;;;;;;5008481;28;20127;-45
2023/12/20 08:16:59;;;;;;;9.40;4.50;;;5.10;99.90;;;;;;5005050;28;20038;-49
2023/12/20 08:19:26;;;;;;;6.47;4.30;;;5.00;99.90;;;;;;5009008;28;20076;-51
2023/12/20 08:21:54;;;;;;;7.82;4.85;;;5.10;99.90;;;;;;5008153;28;20451;-49
2023/12/20 08:24:21;;;;;;;6.72;4.50;;;5.10;99.90;;;;;;5007742;28;20117;-50
2023/12/20 08:26:48;;;;;;;6.05;4.38;;;5.10;99.90;;;;;;5008550;28;20049;-49
2023/12/20 08:29:16;;;;;;;6.05;3.97;;;5.10;99.90;;;;;;5010972;28;20121;-50
2023/12/20 08:31:43;;;;;;;6.75;3.70;;;5.20;99.90;;;;;;5006867;28;20058;-58
2023/12/20 08:34:12;;;;;;;6.28;3.88;;;5.20;99.90;;;;;;5005527;28;20092;-54
2023/12/20 08:36:39;;;;;;;6.78;3.83;;;5.20;99.90;;;;;;5009926;28;20049;-54
2023/12/20 08:39:07;;;;;;;6.43;4.28;;;5.20;99.90;;;;;;5012502;28;20040;-51
2023/12/20 08:41:35;;;;;;;5.90;3.67;;;5.20;99.90;;;;;;5010549;28;20520;-50
2023/12/20 08:44:02;;;;;;;5.85;3.13;;;5.30;99.90;;;;;;4990029;28;20450;-50
2023/12/20 08:46:29;;;;;;;5.70;3.60;;;5.30;99.90;;;;;;5008807;28;20053;-49
2023/12/20 08:48:56;;;;;;;4.90;3.25;;;5.40;99.90;;;;;;5008247;28;20058;-49
2023/12/20 08:51:25;;;;;;;5.00;3.20;;;5.30;99.90;;;;;;5009372;28;20050;-45
2023/12/20 08:53:53;;;;;;;6.00;3.08;;;5.40;99.90;;;;;;4990575;28;20038;-52
2023/12/20 08:56:20;;;;;;;5.68;3.22;;;5.40;99.90;;;;;;5008564;28;20083;-50
2023/12/20 08:58:47;;;;;;;5.10;2.88;;;5.40;99.90;;;;;;5003678;28;20058;-50
2023/12/20 09:01:14;;;;;;;6.25;3.38;;;5.40;99.90;;;;;;5005038;28;20045;-48
2023/12/20 09:03:43;;;;;;;4.90;2.63;;;5.40;99.90;;;;;;5003519;28;20054;-52
2023/12/20 09:06:10;;;;;;;7.63;3.42;;;5.30;99.90;;;;;;5021137;28;20052;-50
2023/12/20 09:08:37;;;;;;;7.05;3.70;;;5.30;99.90;;;;;;5009009;28;20053;-48
2023/12/20 09:11:04;;;;;;;6.22;3.72;;;5.30;99.90;;;;;;5004778;28;20050;-48
2023/12/20 09:13:32;;;;;;;5.03;2.90;;;5.30;99.90;;;;;;5002651;28;20057;-51
2023/12/20 09:15:59;;;;;;;6.13;3.30;;;5.40;99.90;;;;;;5003133;28;20061;-50
2023/12/20 09:18:26;;;;;;;4.65;3.10;;;5.40;99.90;;;;;;5006936;28;20042;-49
2023/12/20 09:20:54;;;;;;;7.15;3.15;;;5.40;99.90;;;;;;5001946;28;20053;-48
2023/12/20 09:23:22;;;;;;;4.53;2.92;;;5.30;99.90;;;;;;5004614;28;20148;-53
2023/12/20 09:25:49;;;;;;;5.78;2.90;;;5.40;99.90;;;;;;5007719;28;20044;-49
2023/12/20 09:28:16;;;;;;;5.85;2.83;;;5.40;99.90;;;;;;5007683;28;20522;-45
2023/12/20 09:30:45;;;;;;;5.72;2.92;;;5.40;99.90;;;;;;5003423;28;20048;-52
2023/12/20 09:33:14;;;;;;;6.70;2.92;;;5.50;99.90;;;;;;5004742;28;20139;-48
2023/12/20 09:35:41;;;;;;;8.20;2.97;;;5.50;99.90;;;;;;5019199;28;20063;-47
2023/12/20 09:38:09;;;;;;;5.05;3.00;;;5.60;99.90;;;;;;5006877;28;20041;-48
2023/12/20 09:40:39;;;;;;;5.60;2.83;;;5.60;99.90;;;;;;5010191;28;20069;-47
2023/12/20 09:43:13;;;;;;;6.72;2.72;;;5.70;99.90;;;;;;5012523;28;20144;-50
2023/12/20 09:45:41;;;;;;;7.65;2.60;;;5.60;99.90;;;;;;5006627;28;20087;-48
2023/12/20 09:48:11;;;;;;;4.93;2.20;;;5.70;99.90;;;;;;5006842;28;20042;-44
2023/12/20 09:50:39;;;;;;;5.57;2.45;;;5.80;99.90;;;;;;5006707;28;20518;-50
2023/12/20 09:53:09;;;;;;;6.57;2.38;;;5.80;99.90;;;;;;5005849;28;20045;-48
2023/12/20 09:55:38;;;;;;;4.10;2.03;;;5.90;99.90;;;;;;5008371;28;20061;-52
2023/12/20 09:58:06;;;;;;;4.45;2.20;;;6.00;99.90;;;;;;5007864;28;20454;-50
2023/12/20 10:00:34;;;;;;;10.10;2.65;;;6.10;99.90;;;;;;5010227;28;20041;-48
2023/12/20 10:03:02;;;;;;;5.35;2.20;;;6.30;99.90;;;;;;5011066;28;20415;-49
2023/12/20 10:05:30;;;;;;;4.70;2.00;;;6.40;99.90;;;;;;5012021;28;20038;-48
2023/12/20 10:07:58;;;;;;;7.25;2.08;;;6.50;99.90;;;;;;5007479;28;20050;-52
2023/12/20 10:10:27;;;;;;;5.10;2.08;;;6.60;99.90;;;;;;5010352;28;20044;-52
2023/12/20 10:13:10;;;;;;;5.28;2.22;;;6.60;99.90;;;;;;5009785;28;20281;-53
2023/12/20 10:15:38;;;;;;;5.28;2.20;;;6.70;99.90;;;;;;5007528;28;20485;-49
2023/12/20 10:18:06;;;;;;;7.55;2.50;;;7.00;99.90;;;;;;5034890;28;20137;-46
2023/12/20 10:20:34;;;;;;;5.72;2.20;;;7.00;99.90;;;;;;5010221;28;20061;-54
2023/12/20 10:23:02;;;;;;;6.75;2.63;;;7.10;99.90;;;;;;5009709;28;20065;-47
2023/12/20 10:25:31;;;;;;;3.63;2.00;;;7.00;99.90;;;;;;5011606;28;20048;-49
2023/12/20 10:28:12;;;;;;;6.10;2.10;;;6.80;99.90;;;;;;5005647;28;20136;-54
2023/12/20 10:30:41;;;;;;;8.60;2.17;;;6.80;99.90;;;;;;5010337;28;20049;-53
2023/12/20 10:33:09;;;;;;;6.60;2.15;;;6.80;99.90;;;;;;5012573;28;20065;-46
2023/12/20 10:35:39;;;;;;;8.60;2.53;;;6.80;99.90;;;;;;5009832;28;20064;-47
2023/12/20 10:38:13;;;;;;;7.70;2.60;;;6.60;99.90;;;;;;5016255;28;20048;-50
2023/12/20 10:40:41;;;;;;;5.93;2.40;;;6.60;99.90;;;;;;5010195;28;20457;-49
2023/12/20 10:43:09;;;;;;;6.85;2.22;;;6.60;99.90;;;;;;5009339;28;20058;-48
2023/12/20 10:45:36;;;;;;;5.38;2.30;;;6.50;99.90;;;;;;5008391;28;20215;-48
2023/12/20 10:48:04;;;;;;;6.22;2.20;;;6.50;99.90;;;;;;5010454;28;20750;-52
2023/12/20 10:50:33;;;;;;;7.78;2.20;;;6.50;99.90;;;;;;5013309;28;20555;-49
2023/12/20 10:53:00;;;;;;;5.57;2.38;;;6.40;99.90;;;;;;5007531;28;20492;-52
2023/12/20 10:55:27;;;;;;;5.68;2.42;;;6.20;99.90;;;;;;5009360;28;20123;-50
2023/12/20 10:58:08;;;;;;;7.40;2.35;;;6.20;99.90;;;;;;5009823;28;20052;-55
2023/12/20 11:00:41;;;;;;;7.18;2.35;;;6.30;99.90;;;;;;5009550;28;20195;-50
2023/12/20 11:03:10;;;;;;;6.28;2.17;;;6.20;99.90;;;;;;5009781;28;20071;-54
2023/12/20 11:06:01;;;;;;;5.60;2.28;;;6.20;99.90;;;;;;5010425;28;20049;-53
2023/12/20 11:08:38;;;;;;;6.63;2.38;;;6.20;99.90;;;;;;5009318;28;20140;-48
2023/12/20 11:11:16;;;;;;;7.15;2.53;;;6.20;99.90;;;;;;5006969;28;20072;-51
2023/12/20 11:14:05;;;;;;;7.68;2.25;;;6.20;99.90;;;;;;5011315;28;20058;-48
2023/12/20 11:16:32;;;;;;;11.13;2.45;;;6.20;99.90;;;;;;5010966;28;20430;-48
2023/12/20 11:19:14;;;;;;;9.13;2.58;;;6.20;99.90;;;;;;5007454;28;20124;-48
2023/12/20 11:21:41;;;;;;;6.68;2.45;;;6.20;99.90;;;;;;5012109;28;20049;-57
2023/12/20 11:24:09;;;;;;;7.38;2.97;;;6.20;99.90;;;;;;5012082;28;20438;-46
2023/12/20 11:26:36;;;;;;;9.73;2.45;;;6.20;99.90;;;;;;5009289;28;20092;-50
2023/12/20 11:29:29;;;;;;;7.65;2.00;;;6.20;99.90;;;;;;5009038;28;20415;-55
2023/12/20 11:31:56;;;;;;;5.15;1.90;;;6.00;99.90;;;;;;5033321;28;20053;-50
2023/12/20 11:34:28;;;;;;;8.13;2.33;;;5.80;99.90;;;;;;5009634;28;20064;-46
2023/12/20 11:37:00;;;;;;;6.75;2.33;;;5.80;99.90;;;;;;5005034;28;20056;-45
2023/12/20 11:39:28;;;;;;;7.63;2.38;;;5.80;99.90;;;;;;5011045;28;20069;-47
2023/12/20 11:41:57;;;;;;;6.00;2.10;;;6.00;99.90;;;;;;5009957;28;20129;-53
2023/12/20 11:44:26;;;;;;;4.82;2.10;;;5.90;99.90;;;;;;5008684;28;20419;-48
2023/12/20 11:46:55;;;;;;;9.68;2.10;;;5.90;99.90;;;;;;5009573;28;20038;-49
2023/12/20 11:49:25;;;;;;;4.93;2.03;;;6.00;99.90;;;;;;5005489;28;20057;-50
2023/12/20 11:51:52;;;;;;;4.82;1.95;;;6.10;99.90;;;;;;5009008;28;20545;-51
2023/12/20 11:54:20;;;;;;;7.90;2.20;;;6.10;99.90;;;;;;5011386;28;20133;-53
2023/12/20 11:56:49;;;;;;;10.05;2.22;;;6.10;99.90;;;;;;5004068;28;20495;-51
2023/12/20 11:59:16;;;;;;;10.68;2.50;;;6.10;99.90;;;;;;5011362;28;20096;-50
2023/12/20 12:01:51;;;;;;;6.50;2.13;;;6.00;99.90;;;;;;5008086;28;20442;-48
2023/12/20 12:04:19;;;;;;;6.75;2.40;;;5.90;99.90;;;;;;5005597;28;20583;-50
2023/12/20 12:06:46;;;;;;;7.05;2.60;;;5.80;99.90;;;;;;5007085;28;20064;-47
2023/12/20 12:09:15;;;;;;;7.47;2.35;;;5.70;99.90;;;;;;5009003;28;20042;-46
2023/12/20 12:11:43;;;;;;;7.13;2.50;;;5.70;99.90;;;;;;5007640;28;20111;-52
2023/12/20 12:14:10;;;;;;;7.00;2.70;;;5.80;99.90;;;;;;5008211;28;20121;-56
2023/12/20 12:16:38;;;;;;;11.50;2.50;;;5.80;99.90;;;;;;5006317;28;20067;-47
2023/12/20 12:19:05;;;;;;;6.85;2.60;;;5.90;99.90;;;;;;5008947;28;20600;-45
2023/12/20 12:21:32;;;;;;;6.60;2.40;;;5.90;99.90;;;;;;5010096;28;20045;-51
2023/12/20 12:24:08;;;;;;;6.55;2.67;;;6.00;99.90;;;;;;5006714;28;20061;-50
2023/12/20 12:26:35;;;;;;;7.20;2.70;;;6.20;99.90;;;;;;5008912;28;20080;-49
2023/12/20 12:29:02;;;;;;;6.05;2.70;;;6.30;99.90;;;;;;5007167;28;20041;-53
2023/12/20 12:31:30;;;;;;;8.45;3.00;;;6.30;99.90;;;;;;5006717;28;20175;-53
2023/12/20 12:33:57;;;;;;;5.57;2.60;;;6.20;99.90;;;;;;5007040;28;20044;-49
2023/12/20 12:36:25;;;;;;;8.90;2.80;;;6.10;99.90;;;;;;5010667;28;20129;-48
2023/12/20 12:38:52;;;;;;;8.63;2.80;;;6.10;99.90;;;;;;5011083;28;20449;-53
2023/12/20 12:41:19;;;;;;;6.93;2.25;;;6.30;99.90;;;;;;5009592;28;20053;-50
2023/12/20 12:43:46;;;;;;;7.22;3.05;;;6.40;99.90;;;;;;5006839;28;20040;-48
2023/12/20 12:46:13;;;;;;;5.60;2.60;;;6.40;99.90;;;;;;5009259;28;20441;-47
2023/12/20 12:48:40;;;;;;;4.47;2.33;;;6.40;99.90;;;;;;5008583;28;20049;-54
2023/12/20 12:51:13;;;;;;;5.95;2.50;;;6.60;99.90;;;;;;5008518;28;20475;-54
2023/12/20 12:53:40;;;;;;;8.73;2.80;;;6.60;99.90;;;;;;5007760;28;20141;-55
2023/12/20 12:56:08;;;;;;;5.22;2.35;;;6.50;99.90;;;;;;5009920;28;20426;-51
2023/12/20 12:58:35;;;;;;;6.32;2.55;;;6.50;99.90;;;;;;5043700;28;20038;-49
2023/12/20 13:01:03;;;;;;;8.20;2.50;;;6.60;99.90;;;;;;5014798;28;20042;-54